sensor_id;sensor_type;location;lat;lon;timestamp;P1;durP1;ratioP1;P2;durP2;ratioP2
28625;SDS011;18905;42.668;23.364;2024-03-25T00:01:02;0.25;;;0.10;;
28625;SDS011;18905;42.668;23.364;2024-03-25T00:03:28;0.10;;;0.10;;
28625;SDS011;18905;42.668;23.364;2024-03-25T00:05:54;0.00;;;0.00;;
28625;SDS011;18905;42.668;23.364;2024-03-25T00:08:19;0.08;;;0.08;;
28625;SDS011;18905;42.668;23.364;2024-03-25T00:10:45;0.25;;;0.25;;
28625;SDS011;18905;42.668;23.364;2024-03-25T00:13:10;0.20;;;0.20;;
28625;SDS011;18905;42.668;23.364;2024-03-25T00:15:36;0.00;;;0.00;;
28625;SDS011;18905;42.668;23.364;2024-03-25T00:18:03;0.03;;;0.03;;
28625;SDS011;18905;42.668;23.364;2024-03-25T00:20:30;0.00;;;0.00;;
28625;SDS011;18905;42.668;23.364;2024-03-25T00:22:56;0.05;;;0.05;;
28625;SDS011;18905;42.668;23.364;2024-03-25T00:25:21;0.35;;;0.17;;
28625;SDS011;18905;42.668;23.364;2024-03-25T00:27:47;0.17;;;0.17;;
28625;SDS011;18905;42.668;23.364;2024-03-25T00:30:12;0.03;;;0.03;;
28625;SDS011;18905;42.668;23.364;2024-03-25T00:32:38;0.10;;;0.08;;
28625;SDS011;18905;42.668;23.364;2024-03-25T00:35:04;0.20;;;0.20;;
28625;SDS011;18905;42.668;23.364;2024-03-25T00:37:29;0.30;;;0.10;;
28625;SDS011;18905;42.668;23.364;2024-03-25T00:39:55;0.60;;;0.40;;
28625;SDS011;18905;42.668;23.364;2024-03-25T00:42:20;0.00;;;0.00;;
28625;SDS011;18905;42.668;23.364;2024-03-25T00:44:46;0.10;;;0.10;;
28625;SDS011;18905;42.668;23.364;2024-03-25T00:47:12;0.10;;;0.10;;
28625;SDS011;18905;42.668;23.364;2024-03-25T00:49:37;1.67;;;0.10;;
28625;SDS011;18905;42.668;23.364;2024-03-25T00:52:03;0.57;;;0.25;;
28625;SDS011;18905;42.668;23.364;2024-03-25T00:54:29;0.20;;;0.15;;
28625;SDS011;18905;42.668;23.364;2024-03-25T00:56:54;0.43;;;0.30;;
28625;SDS011;18905;42.668;23.364;2024-03-25T00:59:20;0.73;;;0.08;;
28625;SDS011;18905;42.668;23.364;2024-03-25T01:01:45;0.00;;;0.00;;
28625;SDS011;18905;42.668;23.364;2024-03-25T01:04:11;0.03;;;0.00;;
28625;SDS011;18905;42.668;23.364;2024-03-25T01:06:36;0.20;;;0.20;;
28625;SDS011;18905;42.668;23.364;2024-03-25T01:09:01;0.10;;;0.00;;
28625;SDS011;18905;42.668;23.364;2024-03-25T01:11:27;0.30;;;0.30;;
28625;SDS011;18905;42.668;23.364;2024-03-25T01:13:52;0.00;;;0.00;;
28625;SDS011;18905;42.668;23.364;2024-03-25T01:16:18;0.08;;;0.08;;
28625;SDS011;18905;42.668;23.364;2024-03-25T01:18:43;0.10;;;0.10;;
28625;SDS011;18905;42.668;23.364;2024-03-25T01:21:08;0.00;;;0.00;;
28625;SDS011;18905;42.668;23.364;2024-03-25T01:23:34;0.20;;;0.00;;
28625;SDS011;18905;42.668;23.364;2024-03-25T01:25:59;0.00;;;0.00;;
28625;SDS011;18905;42.668;23.364;2024-03-25T01:28:25;0.10;;;0.10;;
28625;SDS011;18905;42.668;23.364;2024-03-25T01:30:51;0.00;;;0.00;;
28625;SDS011;18905;42.668;23.364;2024-03-25T01:33:16;0.00;;;0.00;;
28625;SDS011;18905;42.668;23.364;2024-03-25T01:35:42;0.10;;;0.10;;
28625;SDS011;18905;42.668;23.364;2024-03-25T01:38:07;0.20;;;0.10;;
28625;SDS011;18905;42.668;23.364;2024-03-25T01:40:33;0.20;;;0.20;;
28625;SDS011;18905;42.668;23.364;2024-03-25T01:42:59;0.10;;;0.10;;
28625;SDS011;18905;42.668;23.364;2024-03-25T01:45:25;0.10;;;0.10;;
28625;SDS011;18905;42.668;23.364;2024-03-25T01:47:53;0.10;;;0.10;;
28625;SDS011;18905;42.668;23.364;2024-03-25T01:50:20;0.15;;;0.10;;
28625;SDS011;18905;42.668;23.364;2024-03-25T01:52:46;0.10;;;0.10;;
28625;SDS011;18905;42.668;23.364;2024-03-25T01:55:14;0.00;;;0.00;;
28625;SDS011;18905;42.668;23.364;2024-03-25T01:57:43;0.10;;;0.10;;
28625;SDS011;18905;42.668;23.364;2024-03-25T02:00:10;0.10;;;0.10;;
28625;SDS011;18905;42.668;23.364;2024-03-25T02:02:36;1.13;;;0.10;;
28625;SDS011;18905;42.668;23.364;2024-03-25T02:05:06;0.95;;;0.10;;
28625;SDS011;18905;42.668;23.364;2024-03-25T02:07:32;0.10;;;0.10;;
28625;SDS011;18905;42.668;23.364;2024-03-25T02:10:01;0.10;;;0.10;;
28625;SDS011;18905;42.668;23.364;2024-03-25T02:12:28;0.20;;;0.20;;
28625;SDS011;18905;42.668;23.364;2024-03-25T02:14:55;1.08;;;0.10;;
28625;SDS011;18905;42.668;23.364;2024-03-25T02:17:20;0.10;;;0.10;;
28625;SDS011;18905;42.668;23.364;2024-03-25T02:19:46;0.00;;;0.00;;
28625;SDS011;18905;42.668;23.364;2024-03-25T02:22:11;0.00;;;0.00;;
28625;SDS011;18905;42.668;23.364;2024-03-25T02:24:36;0.00;;;0.00;;
28625;SDS011;18905;42.668;23.364;2024-03-25T02:27:03;0.10;;;0.10;;
28625;SDS011;18905;42.668;23.364;2024-03-25T02:29:35;0.00;;;0.00;;
28625;SDS011;18905;42.668;23.364;2024-03-25T02:32:01;0.13;;;0.13;;
28625;SDS011;18905;42.668;23.364;2024-03-25T02:34:26;0.20;;;0.20;;
28625;SDS011;18905;42.668;23.364;2024-03-25T02:36:52;0.00;;;0.00;;
28625;SDS011;18905;42.668;23.364;2024-03-25T02:39:18;0.20;;;0.20;;
28625;SDS011;18905;42.668;23.364;2024-03-25T02:41:45;0.10;;;0.10;;
28625;SDS011;18905;42.668;23.364;2024-03-25T02:44:11;0.13;;;0.13;;
28625;SDS011;18905;42.668;23.364;2024-03-25T02:46:39;0.05;;;0.05;;
28625;SDS011;18905;42.668;23.364;2024-03-25T02:49:05;0.85;;;0.45;;
28625;SDS011;18905;42.668;23.364;2024-03-25T02:51:30;0.20;;;0.20;;
28625;SDS011;18905;42.668;23.364;2024-03-25T02:53:56;0.20;;;0.20;;
28625;SDS011;18905;42.668;23.364;2024-03-25T02:56:21;0.13;;;0.13;;
28625;SDS011;18905;42.668;23.364;2024-03-25T02:58:46;0.00;;;0.00;;
28625;SDS011;18905;42.668;23.364;2024-03-25T03:01:12;0.10;;;0.10;;
28625;SDS011;18905;42.668;23.364;2024-03-25T03:03:37;0.10;;;0.10;;
28625;SDS011;18905;42.668;23.364;2024-03-25T03:06:02;0.30;;;0.30;;
28625;SDS011;18905;42.668;23.364;2024-03-25T03:08:28;0.20;;;0.20;;
28625;SDS011;18905;42.668;23.364;2024-03-25T03:10:53;0.17;;;0.17;;
28625;SDS011;18905;42.668;23.364;2024-03-25T03:13:19;0.85;;;0.30;;
28625;SDS011;18905;42.668;23.364;2024-03-25T03:15:44;0.28;;;0.22;;
28625;SDS011;18905;42.668;23.364;2024-03-25T03:18:10;0.35;;;0.20;;
28625;SDS011;18905;42.668;23.364;2024-03-25T03:20:35;0.40;;;0.40;;
28625;SDS011;18905;42.668;23.364;2024-03-25T03:23:01;0.52;;;0.40;;
28625;SDS011;18905;42.668;23.364;2024-03-25T03:25:26;0.32;;;0.32;;
28625;SDS011;18905;42.668;23.364;2024-03-25T03:27:52;0.70;;;0.47;;
28625;SDS011;18905;42.668;23.364;2024-03-25T03:30:17;0.30;;;0.30;;
28625;SDS011;18905;42.668;23.364;2024-03-25T03:32:42;0.40;;;0.40;;
28625;SDS011;18905;42.668;23.364;2024-03-25T03:35:08;0.30;;;0.30;;
28625;SDS011;18905;42.668;23.364;2024-03-25T03:37:33;0.43;;;0.43;;
28625;SDS011;18905;42.668;23.364;2024-03-25T03:39:58;0.40;;;0.35;;
28625;SDS011;18905;42.668;23.364;2024-03-25T03:42:24;0.57;;;0.57;;
28625;SDS011;18905;42.668;23.364;2024-03-25T03:44:49;0.32;;;0.22;;
28625;SDS011;18905;42.668;23.364;2024-03-25T03:47:14;0.13;;;0.13;;
28625;SDS011;18905;42.668;23.364;2024-03-25T03:49:40;0.35;;;0.25;;
28625;SDS011;18905;42.668;23.364;2024-03-25T03:52:05;1.50;;;0.28;;
28625;SDS011;18905;42.668;23.364;2024-03-25T03:54:30;0.10;;;0.10;;
28625;SDS011;18905;42.668;23.364;2024-03-25T03:56:56;0.30;;;0.30;;
28625;SDS011;18905;42.668;23.364;2024-03-25T03:59:21;1.70;;;0.57;;
28625;SDS011;18905;42.668;23.364;2024-03-25T04:01:46;0.68;;;0.65;;
28625;SDS011;18905;42.668;23.364;2024-03-25T04:04:12;0.55;;;0.55;;
28625;SDS011;18905;42.668;23.364;2024-03-25T04:06:37;0.50;;;0.50;;
28625;SDS011;18905;42.668;23.364;2024-03-25T04:09:05;1.00;;;0.70;;
28625;SDS011;18905;42.668;23.364;2024-03-25T04:11:31;1.05;;;0.50;;
28625;SDS011;18905;42.668;23.364;2024-03-25T04:13:57;0.60;;;0.60;;
28625;SDS011;18905;42.668;23.364;2024-03-25T04:16:22;0.52;;;0.52;;
28625;SDS011;18905;42.668;23.364;2024-03-25T04:18:47;0.65;;;0.65;;
28625;SDS011;18905;42.668;23.364;2024-03-25T04:21:13;0.63;;;0.50;;
28625;SDS011;18905;42.668;23.364;2024-03-25T04:23:39;0.38;;;0.38;;
28625;SDS011;18905;42.668;23.364;2024-03-25T04:26:06;0.28;;;0.28;;
28625;SDS011;18905;42.668;23.364;2024-03-25T04:28:33;0.47;;;0.40;;
28625;SDS011;18905;42.668;23.364;2024-03-25T04:30:59;1.40;;;1.05;;
28625;SDS011;18905;42.668;23.364;2024-03-25T04:33:24;0.90;;;0.60;;
28625;SDS011;18905;42.668;23.364;2024-03-25T04:35:49;1.85;;;0.82;;
28625;SDS011;18905;42.668;23.364;2024-03-25T04:38:18;1.05;;;0.98;;
28625;SDS011;18905;42.668;23.364;2024-03-25T04:40:43;1.23;;;0.95;;
28625;SDS011;18905;42.668;23.364;2024-03-25T04:43:11;1.15;;;1.08;;
28625;SDS011;18905;42.668;23.364;2024-03-25T04:45:37;1.67;;;0.93;;
28625;SDS011;18905;42.668;23.364;2024-03-25T04:48:02;2.25;;;1.38;;
28625;SDS011;18905;42.668;23.364;2024-03-25T04:50:28;1.65;;;1.50;;
28625;SDS011;18905;42.668;23.364;2024-03-25T04:52:53;1.75;;;1.25;;
28625;SDS011;18905;42.668;23.364;2024-03-25T04:55:18;3.88;;;1.90;;
28625;SDS011;18905;42.668;23.364;2024-03-25T04:57:44;2.42;;;2.05;;
28625;SDS011;18905;42.668;23.364;2024-03-25T05:00:09;2.22;;;1.58;;
28625;SDS011;18905;42.668;23.364;2024-03-25T05:02:36;2.60;;;2.35;;
28625;SDS011;18905;42.668;23.364;2024-03-25T05:05:02;4.57;;;1.60;;
28625;SDS011;18905;42.668;23.364;2024-03-25T05:07:28;3.53;;;2.50;;
28625;SDS011;18905;42.668;23.364;2024-03-25T05:09:53;4.55;;;2.25;;
28625;SDS011;18905;42.668;23.364;2024-03-25T05:12:19;3.10;;;2.30;;
28625;SDS011;18905;42.668;23.364;2024-03-25T05:14:45;8.45;;;2.97;;
28625;SDS011;18905;42.668;23.364;2024-03-25T05:17:10;3.15;;;2.45;;
28625;SDS011;18905;42.668;23.364;2024-03-25T05:19:36;4.13;;;2.50;;
28625;SDS011;18905;42.668;23.364;2024-03-25T05:22:01;2.67;;;2.22;;
28625;SDS011;18905;42.668;23.364;2024-03-25T05:24:26;3.47;;;2.72;;
28625;SDS011;18905;42.668;23.364;2024-03-25T05:26:53;5.35;;;3.10;;
28625;SDS011;18905;42.668;23.364;2024-03-25T05:29:18;6.90;;;3.22;;
28625;SDS011;18905;42.668;23.364;2024-03-25T05:32:05;2.65;;;2.45;;
28625;SDS011;18905;42.668;23.364;2024-03-25T05:34:29;3.92;;;3.22;;
28625;SDS011;18905;42.668;23.364;2024-03-25T05:36:56;5.03;;;1.88;;
28625;SDS011;18905;42.668;23.364;2024-03-25T05:39:22;6.35;;;3.40;;
28625;SDS011;18905;42.668;23.364;2024-03-25T05:41:47;1.75;;;1.65;;
28625;SDS011;18905;42.668;23.364;2024-03-25T05:44:14;4.32;;;2.55;;
28625;SDS011;18905;42.668;23.364;2024-03-25T05:46:40;8.82;;;2.42;;
28625;SDS011;18905;42.668;23.364;2024-03-25T05:49:05;4.35;;;3.03;;
28625;SDS011;18905;42.668;23.364;2024-03-25T05:51:31;4.60;;;3.35;;
28625;SDS011;18905;42.668;23.364;2024-03-25T05:53:58;5.93;;;3.17;;
28625;SDS011;18905;42.668;23.364;2024-03-25T05:56:24;5.05;;;3.38;;
28625;SDS011;18905;42.668;23.364;2024-03-25T05:58:55;7.72;;;3.35;;
28625;SDS011;18905;42.668;23.364;2024-03-25T06:01:23;7.20;;;3.92;;
28625;SDS011;18905;42.668;23.364;2024-03-25T06:03:49;3.70;;;2.63;;
28625;SDS011;18905;42.668;23.364;2024-03-25T06:06:14;9.20;;;3.50;;
28625;SDS011;18905;42.668;23.364;2024-03-25T06:08:40;6.90;;;3.22;;
28625;SDS011;18905;42.668;23.364;2024-03-25T06:11:05;3.55;;;2.20;;
28625;SDS011;18905;42.668;23.364;2024-03-25T06:13:31;4.63;;;2.80;;
28625;SDS011;18905;42.668;23.364;2024-03-25T06:15:56;7.97;;;3.90;;
28625;SDS011;18905;42.668;23.364;2024-03-25T06:18:22;6.07;;;3.88;;
28625;SDS011;18905;42.668;23.364;2024-03-25T06:20:47;7.57;;;3.08;;
28625;SDS011;18905;42.668;23.364;2024-03-25T06:23:25;3.33;;;2.65;;
28625;SDS011;18905;42.668;23.364;2024-03-25T06:25:52;5.78;;;3.05;;
28625;SDS011;18905;42.668;23.364;2024-03-25T06:28:19;5.53;;;3.70;;
28625;SDS011;18905;42.668;23.364;2024-03-25T06:30:48;5.68;;;3.03;;
28625;SDS011;18905;42.668;23.364;2024-03-25T06:33:33;3.70;;;2.05;;
28625;SDS011;18905;42.668;23.364;2024-03-25T06:36:18;5.57;;;3.30;;
28625;SDS011;18905;42.668;23.364;2024-03-25T06:38:44;5.57;;;3.58;;
28625;SDS011;18905;42.668;23.364;2024-03-25T06:41:09;4.30;;;2.88;;
28625;SDS011;18905;42.668;23.364;2024-03-25T06:43:35;5.80;;;3.78;;
28625;SDS011;18905;42.668;23.364;2024-03-25T06:46:03;6.70;;;3.25;;
28625;SDS011;18905;42.668;23.364;2024-03-25T06:48:28;6.85;;;2.65;;
28625;SDS011;18905;42.668;23.364;2024-03-25T06:50:57;2.42;;;2.08;;
28625;SDS011;18905;42.668;23.364;2024-03-25T06:53:23;4.22;;;2.90;;
28625;SDS011;18905;42.668;23.364;2024-03-25T06:55:56;4.95;;;3.60;;
28625;SDS011;18905;42.668;23.364;2024-03-25T06:58:23;7.85;;;3.42;;
28625;SDS011;18905;42.668;23.364;2024-03-25T07:00:50;4.95;;;3.10;;
28625;SDS011;18905;42.668;23.364;2024-03-25T07:03:19;3.72;;;2.92;;
28625;SDS011;18905;42.668;23.364;2024-03-25T07:05:46;5.50;;;3.30;;
28625;SDS011;18905;42.668;23.364;2024-03-25T07:08:12;5.05;;;3.15;;
28625;SDS011;18905;42.668;23.364;2024-03-25T07:10:38;5.10;;;3.15;;
28625;SDS011;18905;42.668;23.364;2024-03-25T07:13:03;3.95;;;2.83;;
28625;SDS011;18905;42.668;23.364;2024-03-25T07:15:30;4.38;;;3.17;;
28625;SDS011;18905;42.668;23.364;2024-03-25T07:17:56;4.15;;;3.25;;
28625;SDS011;18905;42.668;23.364;2024-03-25T07:20:21;7.40;;;3.60;;
28625;SDS011;18905;42.668;23.364;2024-03-25T07:22:47;5.53;;;2.97;;
28625;SDS011;18905;42.668;23.364;2024-03-25T07:25:13;6.30;;;3.80;;
28625;SDS011;18905;42.668;23.364;2024-03-25T07:27:38;6.47;;;3.67;;
28625;SDS011;18905;42.668;23.364;2024-03-25T07:30:04;4.30;;;3.25;;
28625;SDS011;18905;42.668;23.364;2024-03-25T07:32:31;10.05;;;3.85;;
28625;SDS011;18905;42.668;23.364;2024-03-25T07:34:58;4.50;;;2.72;;
28625;SDS011;18905;42.668;23.364;2024-03-25T07:37:23;3.90;;;2.50;;
28625;SDS011;18905;42.668;23.364;2024-03-25T07:39:48;4.78;;;3.78;;
28625;SDS011;18905;42.668;23.364;2024-03-25T07:42:14;6.07;;;3.13;;
28625;SDS011;18905;42.668;23.364;2024-03-25T07:44:39;3.33;;;2.95;;
28625;SDS011;18905;42.668;23.364;2024-03-25T07:47:05;4.82;;;3.03;;
28625;SDS011;18905;42.668;23.364;2024-03-25T07:49:31;3.15;;;2.55;;
28625;SDS011;18905;42.668;23.364;2024-03-25T07:51:58;6.68;;;3.67;;
28625;SDS011;18905;42.668;23.364;2024-03-25T07:54:24;4.07;;;2.92;;
28625;SDS011;18905;42.668;23.364;2024-03-25T07:56:51;4.68;;;3.67;;
28625;SDS011;18905;42.668;23.364;2024-03-25T07:59:17;2.80;;;2.42;;
28625;SDS011;18905;42.668;23.364;2024-03-25T08:01:43;7.78;;;3.72;;
28625;SDS011;18905;42.668;23.364;2024-03-25T08:04:08;4.70;;;3.55;;
28625;SDS011;18905;42.668;23.364;2024-03-25T08:06:34;3.25;;;2.83;;
28625;SDS011;18905;42.668;23.364;2024-03-25T08:08:59;3.40;;;2.65;;
28625;SDS011;18905;42.668;23.364;2024-03-25T08:11:24;3.55;;;3.03;;
28625;SDS011;18905;42.668;23.364;2024-03-25T08:13:50;4.90;;;3.20;;
28625;SDS011;18905;42.668;23.364;2024-03-25T08:16:15;4.20;;;2.53;;
28625;SDS011;18905;42.668;23.364;2024-03-25T08:18:40;5.50;;;3.00;;
28625;SDS011;18905;42.668;23.364;2024-03-25T08:21:06;2.42;;;2.22;;
28625;SDS011;18905;42.668;23.364;2024-03-25T08:23:31;4.18;;;3.05;;
28625;SDS011;18905;42.668;23.364;2024-03-25T08:25:57;3.47;;;2.78;;
28625;SDS011;18905;42.668;23.364;2024-03-25T08:28:22;6.05;;;3.20;;
28625;SDS011;18905;42.668;23.364;2024-03-25T08:30:47;5.93;;;3.53;;
28625;SDS011;18905;42.668;23.364;2024-03-25T08:33:13;7.65;;;4.05;;
28625;SDS011;18905;42.668;23.364;2024-03-25T08:35:38;4.20;;;3.60;;
28625;SDS011;18905;42.668;23.364;2024-03-25T08:38:04;3.53;;;3.22;;
28625;SDS011;18905;42.668;23.364;2024-03-25T08:40:29;3.67;;;2.53;;
28625;SDS011;18905;42.668;23.364;2024-03-25T08:42:54;3.17;;;2.88;;
28625;SDS011;18905;42.668;23.364;2024-03-25T08:45:20;2.97;;;2.60;;
28625;SDS011;18905;42.668;23.364;2024-03-25T08:47:45;2.42;;;2.22;;
28625;SDS011;18905;42.668;23.364;2024-03-25T08:50:11;2.65;;;1.77;;
28625;SDS011;18905;42.668;23.364;2024-03-25T08:52:36;2.63;;;2.42;;
28625;SDS011;18905;42.668;23.364;2024-03-25T08:55:01;2.35;;;2.15;;
28625;SDS011;18905;42.668;23.364;2024-03-25T08:57:27;3.10;;;2.80;;
28625;SDS011;18905;42.668;23.364;2024-03-25T08:59:52;4.20;;;3.90;;
28625;SDS011;18905;42.668;23.364;2024-03-25T09:02:18;2.58;;;2.38;;
28625;SDS011;18905;42.668;23.364;2024-03-25T09:04:43;3.40;;;3.10;;
28625;SDS011;18905;42.668;23.364;2024-03-25T09:07:09;3.03;;;2.05;;
28625;SDS011;18905;42.668;23.364;2024-03-25T09:09:34;2.38;;;2.22;;
28625;SDS011;18905;42.668;23.364;2024-03-25T09:12:18;4.03;;;2.63;;
28625;SDS011;18905;42.668;23.364;2024-03-25T09:14:43;3.85;;;2.67;;
28625;SDS011;18905;42.668;23.364;2024-03-25T09:17:09;4.97;;;3.38;;
28625;SDS011;18905;42.668;23.364;2024-03-25T09:19:34;3.50;;;3.15;;
28625;SDS011;18905;42.668;23.364;2024-03-25T09:21:59;4.85;;;3.08;;
28625;SDS011;18905;42.668;23.364;2024-03-25T09:24:25;3.72;;;2.53;;
28625;SDS011;18905;42.668;23.364;2024-03-25T09:26:50;3.47;;;3.15;;
28625;SDS011;18905;42.668;23.364;2024-03-25T09:29:16;5.63;;;3.85;;
28625;SDS011;18905;42.668;23.364;2024-03-25T09:31:41;3.53;;;2.33;;
28625;SDS011;18905;42.668;23.364;2024-03-25T09:34:07;4.45;;;3.50;;
28625;SDS011;18905;42.668;23.364;2024-03-25T09:36:33;2.55;;;2.30;;
28625;SDS011;18905;42.668;23.364;2024-03-25T09:38:58;2.90;;;2.63;;
28625;SDS011;18905;42.668;23.364;2024-03-25T09:41:23;4.75;;;3.28;;
28625;SDS011;18905;42.668;23.364;2024-03-25T09:43:52;5.35;;;3.30;;
28625;SDS011;18905;42.668;23.364;2024-03-25T09:46:20;3.70;;;2.88;;
28625;SDS011;18905;42.668;23.364;2024-03-25T09:48:47;3.25;;;2.83;;
28625;SDS011;18905;42.668;23.364;2024-03-25T09:51:13;4.22;;;2.65;;
28625;SDS011;18905;42.668;23.364;2024-03-25T09:53:39;2.63;;;2.42;;
28625;SDS011;18905;42.668;23.364;2024-03-25T09:56:04;2.85;;;1.88;;
28625;SDS011;18905;42.668;23.364;2024-03-25T09:58:31;4.38;;;2.13;;
28625;SDS011;18905;42.668;23.364;2024-03-25T10:00:57;3.75;;;3.45;;
28625;SDS011;18905;42.668;23.364;2024-03-25T10:03:23;5.05;;;3.22;;
28625;SDS011;18905;42.668;23.364;2024-03-25T10:05:48;3.30;;;2.38;;
28625;SDS011;18905;42.668;23.364;2024-03-25T10:08:19;4.72;;;2.40;;
28625;SDS011;18905;42.668;23.364;2024-03-25T10:10:45;2.80;;;2.58;;
28625;SDS011;18905;42.668;23.364;2024-03-25T10:13:10;2.60;;;2.40;;
28625;SDS011;18905;42.668;23.364;2024-03-25T10:15:36;3.75;;;2.58;;
28625;SDS011;18905;42.668;23.364;2024-03-25T10:18:01;3.15;;;2.85;;
28625;SDS011;18905;42.668;23.364;2024-03-25T10:20:27;3.42;;;2.70;;
28625;SDS011;18905;42.668;23.364;2024-03-25T10:22:52;2.80;;;2.60;;
28625;SDS011;18905;42.668;23.364;2024-03-25T10:28:19;2.40;;;1.92;;
28625;SDS011;18905;42.668;23.364;2024-03-25T10:30:38;3.83;;;2.63;;
28625;SDS011;18905;42.668;23.364;2024-03-25T10:33:06;3.13;;;2.90;;
28625;SDS011;18905;42.668;23.364;2024-03-25T10:35:33;2.30;;;2.08;;
28625;SDS011;18905;42.668;23.364;2024-03-25T10:38:00;3.20;;;2.20;;
28625;SDS011;18905;42.668;23.364;2024-03-25T10:40:29;1.83;;;1.73;;
28625;SDS011;18905;42.668;23.364;2024-03-25T10:43:05;2.92;;;2.10;;
28625;SDS011;18905;42.668;23.364;2024-03-25T10:45:37;2.30;;;2.10;;
28625;SDS011;18905;42.668;23.364;2024-03-25T10:51:16;2.60;;;2.20;;
28625;SDS011;18905;42.668;23.364;2024-03-25T10:53:46;2.00;;;1.80;;
28625;SDS011;18905;42.668;23.364;2024-03-25T10:56:13;6.13;;;2.33;;
28625;SDS011;18905;42.668;23.364;2024-03-25T10:58:40;4.55;;;2.30;;
28625;SDS011;18905;42.668;23.364;2024-03-25T11:01:06;2.08;;;1.88;;
28625;SDS011;18905;42.668;23.364;2024-03-25T11:03:32;3.60;;;2.22;;
28625;SDS011;18905;42.668;23.364;2024-03-25T11:05:59;2.25;;;2.05;;
28625;SDS011;18905;42.668;23.364;2024-03-25T11:08:30;1.73;;;1.48;;
28625;SDS011;18905;42.668;23.364;2024-03-25T11:10:59;1.58;;;1.45;;
28625;SDS011;18905;42.668;23.364;2024-03-25T11:13:26;1.95;;;1.85;;
28625;SDS011;18905;42.668;23.364;2024-03-25T11:15:52;1.75;;;1.65;;
28625;SDS011;18905;42.668;23.364;2024-03-25T11:18:18;1.35;;;1.15;;
28625;SDS011;18905;42.668;23.364;2024-03-25T11:21:04;1.25;;;1.15;;
28625;SDS011;18905;42.668;23.364;2024-03-25T11:23:43;2.05;;;1.67;;
28625;SDS011;18905;42.668;23.364;2024-03-25T11:26:24;1.48;;;1.38;;
28625;SDS011;18905;42.668;23.364;2024-03-25T11:28:50;2.45;;;1.95;;
28625;SDS011;18905;42.668;23.364;2024-03-25T11:31:18;1.30;;;1.20;;
28625;SDS011;18905;42.668;23.364;2024-03-25T11:33:45;1.65;;;1.55;;
28625;SDS011;18905;42.668;23.364;2024-03-25T11:36:10;1.90;;;1.80;;
28625;SDS011;18905;42.668;23.364;2024-03-25T11:38:36;1.70;;;1.60;;
28625;SDS011;18905;42.668;23.364;2024-03-25T11:41:03;1.20;;;1.20;;
28625;SDS011;18905;42.668;23.364;2024-03-25T11:43:29;1.65;;;1.55;;
28625;SDS011;18905;42.668;23.364;2024-03-25T11:45:54;1.15;;;1.15;;
28625;SDS011;18905;42.668;23.364;2024-03-25T11:48:20;1.40;;;1.30;;
28625;SDS011;18905;42.668;23.364;2024-03-25T11:50:46;2.38;;;2.17;;
28625;SDS011;18905;42.668;23.364;2024-03-25T11:53:12;2.85;;;1.98;;
28625;SDS011;18905;42.668;23.364;2024-03-25T11:55:40;1.58;;;1.48;;
28625;SDS011;18905;42.668;23.364;2024-03-25T11:58:06;4.47;;;1.50;;
28625;SDS011;18905;42.668;23.364;2024-03-25T12:00:32;5.22;;;1.70;;
28625;SDS011;18905;42.668;23.364;2024-03-25T12:02:57;1.75;;;1.65;;
28625;SDS011;18905;42.668;23.364;2024-03-25T12:05:23;2.70;;;1.80;;
28625;SDS011;18905;42.668;23.364;2024-03-25T12:07:48;2.42;;;1.63;;
28625;SDS011;18905;42.668;23.364;2024-03-25T12:10:15;1.65;;;1.55;;
28625;SDS011;18905;42.668;23.364;2024-03-25T12:12:59;3.30;;;2.22;;
28625;SDS011;18905;42.668;23.364;2024-03-25T12:15:24;2.40;;;1.95;;
28625;SDS011;18905;42.668;23.364;2024-03-25T12:17:53;1.67;;;1.58;;
28625;SDS011;18905;42.668;23.364;2024-03-25T12:20:19;2.75;;;1.52;;
28625;SDS011;18905;42.668;23.364;2024-03-25T12:22:45;1.70;;;1.60;;
28625;SDS011;18905;42.668;23.364;2024-03-25T12:25:11;2.28;;;2.17;;
28625;SDS011;18905;42.668;23.364;2024-03-25T12:27:36;6.97;;;1.75;;
28625;SDS011;18905;42.668;23.364;2024-03-25T12:30:04;1.85;;;1.75;;
28625;SDS011;18905;42.668;23.364;2024-03-25T12:32:38;1.70;;;1.60;;
28625;SDS011;18905;42.668;23.364;2024-03-25T12:37:33;2.00;;;1.63;;
28625;SDS011;18905;42.668;23.364;2024-03-25T12:39:58;1.98;;;1.80;;
28625;SDS011;18905;42.668;23.364;2024-03-25T12:42:24;1.85;;;1.67;;
28625;SDS011;18905;42.668;23.364;2024-03-25T12:44:52;2.35;;;1.98;;
28625;SDS011;18905;42.668;23.364;2024-03-25T12:47:17;2.60;;;1.40;;
28625;SDS011;18905;42.668;23.364;2024-03-25T12:49:43;2.60;;;1.67;;
28625;SDS011;18905;42.668;23.364;2024-03-25T12:52:08;3.20;;;1.70;;
28625;SDS011;18905;42.668;23.364;2024-03-25T12:54:34;1.30;;;1.23;;
28625;SDS011;18905;42.668;23.364;2024-03-25T12:56:59;1.52;;;1.40;;
28625;SDS011;18905;42.668;23.364;2024-03-25T12:59:25;1.63;;;1.52;;
28625;SDS011;18905;42.668;23.364;2024-03-25T13:01:50;1.27;;;1.17;;
28625;SDS011;18905;42.668;23.364;2024-03-25T13:04:17;1.45;;;1.30;;
28625;SDS011;18905;42.668;23.364;2024-03-25T13:06:42;1.60;;;1.42;;
28625;SDS011;18905;42.668;23.364;2024-03-25T13:09:08;1.75;;;1.65;;
28625;SDS011;18905;42.668;23.364;2024-03-25T13:11:33;1.63;;;1.52;;
28625;SDS011;18905;42.668;23.364;2024-03-25T13:14:00;1.10;;;1.10;;
28625;SDS011;18905;42.668;23.364;2024-03-25T13:16:25;0.98;;;0.98;;
28625;SDS011;18905;42.668;23.364;2024-03-25T13:18:51;2.47;;;1.52;;
28625;SDS011;18905;42.668;23.364;2024-03-25T13:21:16;2.65;;;2.00;;
28625;SDS011;18905;42.668;23.364;2024-03-25T13:23:41;1.67;;;1.58;;
28625;SDS011;18905;42.668;23.364;2024-03-25T13:26:07;1.55;;;1.45;;
28625;SDS011;18905;42.668;23.364;2024-03-25T13:28:32;4.80;;;2.67;;
28625;SDS011;18905;42.668;23.364;2024-03-25T13:30:58;1.38;;;1.27;;
28625;SDS011;18905;42.668;23.364;2024-03-25T13:33:23;6.72;;;2.22;;
28625;SDS011;18905;42.668;23.364;2024-03-25T13:35:48;6.50;;;1.80;;
28625;SDS011;18905;42.668;23.364;2024-03-25T13:38:14;1.92;;;1.80;;
28625;SDS011;18905;42.668;23.364;2024-03-25T13:40:39;1.88;;;1.77;;
28625;SDS011;18905;42.668;23.364;2024-03-25T13:43:05;1.90;;;1.80;;
28625;SDS011;18905;42.668;23.364;2024-03-25T13:45:33;1.20;;;1.10;;
28625;SDS011;18905;42.668;23.364;2024-03-25T13:47:58;1.77;;;1.20;;
28625;SDS011;18905;42.668;23.364;2024-03-25T13:50:24;1.27;;;1.17;;
28625;SDS011;18905;42.668;23.364;2024-03-25T13:52:49;1.85;;;1.45;;
28625;SDS011;18905;42.668;23.364;2024-03-25T13:55:14;1.90;;;1.77;;
28625;SDS011;18905;42.668;23.364;2024-03-25T13:57:40;1.40;;;1.25;;
28625;SDS011;18905;42.668;23.364;2024-03-25T14:00:05;1.33;;;1.27;;
28625;SDS011;18905;42.668;23.364;2024-03-25T14:02:35;1.02;;;1.02;;
28625;SDS011;18905;42.668;23.364;2024-03-25T14:05:01;1.48;;;1.38;;
28625;SDS011;18905;42.668;23.364;2024-03-25T14:07:26;0.98;;;0.98;;
28625;SDS011;18905;42.668;23.364;2024-03-25T14:09:52;2.03;;;1.27;;
28625;SDS011;18905;42.668;23.364;2024-03-25T14:12:18;0.65;;;0.65;;
28625;SDS011;18905;42.668;23.364;2024-03-25T14:14:43;2.55;;;0.90;;
28625;SDS011;18905;42.668;23.364;2024-03-25T14:17:08;0.80;;;0.75;;
28625;SDS011;18905;42.668;23.364;2024-03-25T14:19:34;1.02;;;0.93;;
28625;SDS011;18905;42.668;23.364;2024-03-25T14:21:59;5.00;;;1.92;;
28625;SDS011;18905;42.668;23.364;2024-03-25T14:24:24;1.75;;;0.75;;
28625;SDS011;18905;42.668;23.364;2024-03-25T14:26:50;2.13;;;0.93;;
28625;SDS011;18905;42.668;23.364;2024-03-25T14:29:15;1.55;;;1.02;;
28625;SDS011;18905;42.668;23.364;2024-03-25T14:31:40;1.13;;;0.70;;
28625;SDS011;18905;42.668;23.364;2024-03-25T14:34:06;1.27;;;1.17;;
28625;SDS011;18905;42.668;23.364;2024-03-25T14:36:31;1.05;;;0.93;;